Latest Weather Observations for Oenpelli Airport

IDD60801

Issued at 3:01 pm CST Saturday 1 August 2015 (issued every 30 minutes, with the page automatically refreshed every 10 minutes)

About weather observations | Map of weather stations | Latest weather observations for NT | Other Formats
Station Details ID: 014310 Name: OENPELLI AIRPORT Lat: -12.33 Lon: 133.01 Height: 7.5 m
Data from the previous 72 hours. | See also: Recent months for locations in Northern Territory
Date/Time
CST
Temp
°C
App
Temp
°C
Dew
Point
Rel
Hum
%
Delta-T
°C
Wind Press
QNH
hPa
Press
MSL
hPa
Rain
since 9 am
mm
Dir
 
Spd
km/h
Gust
km/h
Spd
kts
Gust
kts
01/03:00pm 33.0 - - - - ENE 15 26 8 14 1012.3 1012.2 0.0
01/02:30pm 32.5 - - - - ENE 13 39 7 21 1012.5 1012.4 0.0
01/02:00pm 32.2 - - - - NE 17 28 9 15 1013.0 1012.9 0.0
01/01:30pm 31.6 - - - - ENE 13 26 7 14 1013.5 1013.4 0.0
01/01:00pm 31.4 - - - - E 15 22 8 12 1014.2 1014.1 0.0
01/12:30pm 30.9 - - - - E 13 24 7 13 1014.7 1014.6 0.0
01/12:00pm 29.9 - - - - ENE 19 30 10 16 1015.4 1015.3 0.0
01/11:30am 30.2 - - - - E 19 32 10 17 1015.6 1015.5 0.0
01/11:00am 29.9 - - - - E 17 28 9 15 1015.9 1015.8 0.0
01/10:30am 29.4 - - - - ENE 15 26 8 14 1016.2 1016.1 0.0
01/10:00am 28.0 - - - - ENE 11 22 6 12 1016.4 1016.3 0.0
01/09:30am 26.7 - - - - ENE 6 13 3 7 1016.4 1016.3 0.0
01/09:00am 25.9 - - - - SE 4 11 2 6 1016.3 1016.2 -
01/08:30am 23.2 - - - - CALM 0 2 0 1 1016.1 1016.0 -
01/08:00am 20.3 - - - - CALM 0 0 0 0 1015.8 1015.7 -
01/07:30am 17.8 - - - - N 2 4 1 2 1015.4 1015.3 -
01/07:00am 17.1 - - - - ENE 2 4 1 2 1015.2 1015.1 -
01/06:30am 17.6 - - - - E 2 4 1 2 1014.9 1014.8 -
01/06:00am 18.3 - - - - ESE 2 2 1 1 1014.5 1014.4 -
01/05:30am 18.4 - - - - ESE 4 6 2 3 1014.2 1014.1 -
01/05:00am 19.7 - - - - ENE 2 2 1 1 1014.1 1014.0 -
01/04:30am 20.3 - - - - ENE 2 4 1 2 1014.0 1013.9 -
01/04:00am 21.7 - - - - ENE 6 7 3 4 1014.0 1013.9 -
01/03:30am 21.6 - - - - ENE 7 7 4 4 1014.0 1013.9 -
01/03:00am 21.4 - - - - NE 7 7 4 4 1014.1 1014.0 0.0
01/02:30am 21.7 - - - - NE 7 9 4 5 1014.3 1014.2 -
01/02:00am 22.2 - - - - NE 7 9 4 5 1014.5 1014.4 -
01/01:30am 23.1 - - - - ENE 7 11 4 6 1014.7 1014.6 -
01/01:00am 23.6 - - - - ENE 11 13 6 7 1014.8 1014.7 -
01/12:30am 23.6 - - - - ENE 9 15 5 8 1014.9 1014.8 -
01/12:00am 23.7 - - - - ENE 9 15 5 8 1014.9 1014.8 -
 
Date/Time
CST
Temp
°C
App
Temp
°C
Dew
Point
Rel
Hum
%
Delta-T
°C
Wind Press
QNH
hPa
Press
MSL
hPa
Rain
since 9 am
mm
Dir
 
Spd
km/h
Gust
km/h
Spd
kts
Gust
kts
31/11:30pm 23.8 - - - - NE 9 15 5 8 1014.7 1014.6 -
31/11:00pm 23.8 - - - - NE 11 17 6 9 1014.4 1014.3 -
31/10:30pm 23.7 - - - - NE 9 13 5 7 1014.2 1014.1 -
31/10:00pm 23.3 - - - - NE 6 7 3 4 1014.1 1014.0 -
31/09:30pm 24.1 - - - - NNE 6 7 3 4 1013.9 1013.8 -
31/09:00pm 24.4 - - - - NE 7 11 4 6 1013.6 1013.5 0.0
31/08:30pm 25.0 - - - - NE 7 11 4 6 1013.0 1012.9 -
31/08:00pm 25.4 - - - - NE 9 13 5 7 1012.7 1012.6 -
31/07:30pm 25.7 - - - - NE 6 9 3 5 1012.3 1012.2 -
31/07:00pm 26.9 - - - - NNE 4 7 2 4 1011.9 1011.8 -
31/06:30pm 28.2 - - - - NNE 9 13 5 7 1011.5 1011.4 -
31/06:00pm 29.5 - - - - NNE 9 13 5 7 1011.1 1011.0 -
31/05:30pm 30.5 - - - - NNE 9 13 5 7 1011.0 1010.9 -
31/05:00pm 31.6 - - - - NE 13 19 7 10 1011.0 1010.9 -
31/04:30pm 31.9 - - - - ENE 17 26 9 14 1011.0 1010.9 -
31/04:00pm 31.0 - - - - NE 11 17 6 9 1011.0 1010.9 -
31/03:30pm 31.6 - - - - NE 13 19 7 10 1011.1 1011.0 -
31/03:00pm 32.4 - - - - ENE 17 30 9 16 1011.4 1011.3 -
31/02:30pm 32.5 - - - - ENE 17 30 9 16 1011.8 1011.7 -
31/02:00pm 32.7 - - - - ENE 15 24 8 13 1012.4 1012.3 -
31/01:30pm 32.3 - - - - E 20 32 11 17 1012.9 1012.8 -
31/01:00pm 31.8 - - - - ENE 19 30 10 16 1013.5 1013.4 0.0
31/12:30pm 31.5 - - - - ENE 19 30 10 16 1014.1 1014.0 0.0
31/12:00pm 30.2 - - - - E 20 30 11 16 1014.5 1014.4 0.0
31/11:30am 31.2 - - - - E 22 32 12 17 1015.0 1014.9 0.0
31/11:00am 30.4 - - - - ENE 20 35 11 19 1015.3 1015.2 0.0
31/10:30am 29.8 - - - - E 19 28 10 15 1015.8 1015.7 0.0
31/10:00am 29.2 - - - - E 20 28 11 15 1015.9 1015.8 0.0
31/09:30am 28.1 - - - - E 17 28 9 15 1016.1 1016.0 0.0
31/09:00am 27.1 - - - - E 17 26 9 14 1016.3 1016.2 0.0
31/08:30am 23.2 - - - - CALM 0 2 0 1 1016.3 1016.2 0.0
31/08:00am 20.9 - - - - CALM 0 0 0 0 1016.2 1016.1 0.0
31/07:30am 18.7 - - - - W 4 6 2 3 1016.0 1015.9 0.0
31/07:00am 18.0 - - - - CALM 0 0 0 0 1015.8 1015.7 0.0
31/06:30am 18.6 - - - - CALM 0 6 0 3 1015.6 1015.5 0.0
31/06:00am 18.8 - - - - NNW 4 6 2 3 1015.3 1015.2 0.0
31/05:30am 20.5 - - - - NNE 4 6 2 3 1015.2 1015.1 0.0
31/05:00am 20.7 - - - - CALM 0 4 0 2 1015.1 1015.0 0.0
31/04:30am 21.3 - - - - CALM 0 0 0 0 1015.3 1015.2 0.0
31/04:00am 21.1 - - - - CALM 0 0 0 0 1015.4 1015.3 0.0
31/03:30am 22.3 - - - - ESE 4 7 2 4 1015.5 1015.4 0.0
31/03:00am 21.9 - - - - CALM 0 0 0 0 1015.6 1015.5 0.0
31/02:30am 22.9 - - - - NE 4 4 2 2 1015.9 1015.8 0.0
31/02:00am 24.4 - - - - ESE 7 13 4 7 1015.9 1015.8 0.0
31/01:30am 24.9 - - - - ESE 11 15 6 8 1016.0 1015.9 0.0
31/01:00am 25.4 - - - - ESE 13 19 7 10 1016.2 1016.1 0.0
31/12:30am 26.3 - - - - ESE 17 28 9 15 1016.2 1016.1 0.0
31/12:00am 25.9 - - - - E 13 19 7 10 1016.3 1016.2 0.0
 
Date/Time
CST
Temp
°C
App
Temp
°C
Dew
Point
Rel
Hum
%
Delta-T
°C
Wind Press
QNH
hPa
Press
MSL
hPa
Rain
since 9 am
mm
Dir
 
Spd
km/h
Gust
km/h
Spd
kts
Gust
kts
30/11:30pm 27.1 - - - - SE 13 20 7 11 1016.1 1016.0 0.0
30/11:00pm 27.7 - - - - SE 19 33 10 18 1016.0 1015.9 0.0
30/10:30pm 28.1 - - - - SE 15 26 8 14 1016.0 1015.9 0.0
30/10:00pm 28.3 - - - - SE 11 20 6 11 1016.0 1015.9 0.0
30/09:30pm 27.7 - - - - ESE 7 13 4 7 1015.7 1015.6 0.0
30/09:00pm 27.8 - - - - SE 7 9 4 5 1015.5 1015.4 0.0
30/08:30pm 28.1 - - - - ESE 7 11 4 6 1015.1 1015.0 0.0
30/08:00pm 27.8 - - - - ESE 7 9 4 5 1014.7 1014.6 0.0
30/07:30pm 28.4 - - - - ESE 6 7 3 4 1014.1 1014.0 0.0
30/07:00pm 29.2 - - - - ESE 7 13 4 7 1013.7 1013.6 0.0
30/06:30pm 30.2 - - - - ESE 7 11 4 6 1013.3 1013.2 0.0
30/06:00pm 31.6 - - - - ESE 11 19 6 10 1012.9 1012.8 0.0
30/05:30pm 32.6 - - - - E 13 19 7 10 1012.7 1012.6 0.0
30/05:00pm 33.1 - - - - ESE 15 22 8 12 1012.5 1012.4 0.0
30/04:30pm 33.0 - - - - SE 11 28 6 15 1012.4 1012.3 0.0
30/04:00pm 33.6 - - - - E 15 22 8 12 1012.3 1012.2 0.0
30/03:30pm 33.3 - - - - ESE 17 26 9 14 1012.6 1012.5 0.0
30/03:00pm 33.0 - - - - E 19 28 10 15 1012.8 1012.7 0.0
30/02:30pm 33.1 - - - - ESE 19 35 10 19 1013.3 1013.2 0.0
30/02:00pm 32.9 - - - - ESE 17 28 9 15 1013.7 1013.6 0.0
30/01:30pm 33.0 - - - - E 20 33 11 18 1014.3 1014.2 0.0
30/01:00pm 32.0 - - - - E 20 33 11 18 1014.9 1014.8 0.0
30/12:30pm 32.5 - - - - E 20 37 11 20 1015.3 1015.2 0.0
30/12:00pm 31.3 - - - - ENE 28 39 15 21 1015.9 1015.8 0.0
30/11:30am 31.3 - - - - E 24 37 13 20 1016.3 1016.2 0.0
30/11:00am 30.7 - - - - E 24 35 13 19 1016.6 1016.5 0.0
30/10:30am 29.9 - - - - ENE 26 39 14 21 1017.0 1016.9 0.0
30/10:00am 29.2 - - - - E 26 39 14 21 1017.0 1016.9 0.0
30/09:30am 28.7 - - - - E 17 24 9 13 1017.0 1016.9 0.0
30/09:00am 27.0 - - - - ESE 19 26 10 14 1016.9 1016.8 0.0
30/08:30am 25.9 - - - - E 15 26 8 14 1016.6 1016.5 0.0
30/08:00am 24.6 - - - - E 11 20 6 11 1016.5 1016.4 0.0
30/07:30am 23.2 - - - - ESE 11 15 6 8 1016.3 1016.2 0.0
30/07:00am 22.5 - - - - ESE 11 17 6 9 1016.2 1016.1 0.0
30/06:30am 22.0 - - - - ESE 6 9 3 5 1016.0 1015.9 0.0
30/06:00am 22.5 - - - - SE 9 13 5 7 1015.9 1015.8 0.0
30/05:30am 22.8 - - - - SE 7 11 4 6 1015.9 1015.8 0.0
30/05:00am 21.6 - - - - SE 6 7 3 4 1015.9 1015.8 0.0
30/04:30am 22.3 - - - - SE 2 4 1 2 1016.0 1015.9 0.0
30/04:00am 23.6 - - - - ESE 9 13 5 7 1016.2 1016.1 0.0
30/03:30am 23.3 - - - - ESE 4 6 2 3 1016.5 1016.4 0.0
30/03:00am 23.7 - - - - ESE 6 11 3 6 1016.5 1016.4 0.0
30/02:30am 24.5 - - - - ESE 9 15 5 8 1016.6 1016.5 0.0
30/02:00am 24.7 - - - - SE 7 9 4 5 1016.7 1016.6 0.0
30/01:30am 25.2 - - - - ESE 11 17 6 9 1016.9 1016.8 0.0
30/01:00am 25.2 - - - - ESE 7 11 4 6 1017.0 1016.9 0.0
30/12:30am 25.3 - - - - ESE 6 9 3 5 1017.2 1017.1 0.0
30/12:00am 26.1 - - - - ESE 7 13 4 7 1017.2 1017.1 0.0
 
Date/Time
CST
Temp
°C
App
Temp
°C
Dew
Point
Rel
Hum
%
Delta-T
°C
Wind Press
QNH
hPa
Press
MSL
hPa
Rain
since 9 am
mm
Dir
 
Spd
km/h
Gust
km/h
Spd
kts
Gust
kts
29/11:30pm 26.8 - - - - ESE 7 11 4 6 1017.2 1017.1 0.0
29/11:00pm 27.0 - - - - ESE 9 13 5 7 1017.1 1017.0 0.0
29/10:30pm 27.4 - - - - ESE 9 13 5 7 1017.0 1016.9 0.0
29/10:00pm 28.1 - - - - ESE 9 13 5 7 1017.0 1016.9 0.0
29/09:30pm 28.0 - - - - ESE 9 13 5 7 1016.7 1016.6 0.0
29/09:00pm 28.5 - - - - ESE 11 17 6 9 1016.4 1016.3 0.0
29/08:30pm 28.9 - - - - ESE 9 17 5 9 1015.9 1015.8 0.0
29/08:00pm 28.8 - - - - ESE 9 17 5 9 1015.6 1015.5 0.0
29/07:30pm 29.2 - - - - ESE 11 15 6 8 1015.1 1015.0 0.0
29/07:00pm 29.9 - - - - ESE 15 22 8 12 1014.8 1014.7 0.0
29/06:30pm 30.0 - - - - E 15 22 8 12 1014.4 1014.3 0.0
29/06:00pm 31.0 - - - - E 15 24 8 13 1014.2 1014.1 0.0
29/05:30pm 31.8 - - - - ESE 17 28 9 15 1013.7 1013.6 0.0
29/05:00pm 32.6 - - - - SE 15 26 8 14 1013.5 1013.4 0.0
29/04:30pm 32.7 - - - - ESE 15 24 8 13 1013.3 1013.2 0.0
29/04:00pm 32.9 - - - - E 17 28 9 15 1013.3 1013.2 0.0
29/03:30pm 33.3 - - - - ESE 15 32 8 17 1013.4 1013.3 0.0

Other Formats:

Comma delimited format used in spreadsheet applications
http://www.bom.gov.au/fwo/IDD60801/IDD60801.94110.axf

JavaScript Object Notation format (JSON) in row-major order
http://www.bom.gov.au/fwo/IDD60801/IDD60801.94110.json